This is the latest recevied weather packets stored in our database for station/object KC9MWQ-13. If no packets are shown the sender has not sent any weather packets the latest 10 day(s).
| Time | Temp. | Humidity | Pressure | Rain* | Wind** | Luminosity | Snow |
|---|---|---|---|---|---|---|---|
| 1778085284 | 13.89° C | 61% | 1014.9 hPa | 0 mm | - | 569 W/m² | - |
| 1778084978 | 12.78° C | 64% | 1014.5 hPa | 0 mm | - | 416 W/m² | - |
| 1778084676 | 12.78° C | 64% | 1014.7 hPa | 0 mm | - | 479 W/m² | - |
| 1778084368 | 12.78° C | 60% | 1014.5 hPa | 0 mm | - | 312 W/m² | - |
| 1778084066 | 12.78° C | 63% | 1014.7 hPa | 0 mm | - | 477 W/m² | - |
| 1778083763 | 12.22° C | 62% | 1014.7 hPa | 0 mm | - | 417 W/m² | - |
| 1778083460 | 12.22° C | 65% | 1015.1 hPa | 0 mm | - | 292 W/m² | - |
| 1778083158 | 11.67° C | 63% | 1014.6 hPa | 0 mm | - | 258 W/m² | - |
| 1778082855 | 12.22° C | 64% | 1014.9 hPa | 0 mm | - | 252 W/m² | - |
| 1778081737 | 12.22° C | 65% | 1014.5 hPa | 0 mm | - | 315 W/m² | - |
| 1778081434 | 13.33° C | 63% | 1014.4 hPa | 0 mm | - | 296 W/m² | - |
| 1778081131 | 12.78° C | 65% | 1014.9 hPa | 0 mm | - | 366 W/m² | - |
| 1778080829 | 12.22° C | 65% | 1014.6 hPa | 0 mm | - | 367 W/m² | - |
| 1778080527 | 12.22° C | 64% | 1014.9 hPa | 0 mm | - | 370 W/m² | - |
| 1778080224 | 12.78° C | 62% | 1014.7 hPa | 0 mm | - | 319 W/m² | - |
| 1778079920 | 12.22° C | 69% | 1015.2 hPa | 0 mm | - | 1023 W/m² | - |
| 1778079617 | 12.22° C | 67% | 1014.5 hPa | 0 mm | - | 451 W/m² | - |
| 1778079314 | 12.22° C | 64% | 1014.5 hPa | 0 mm | - | 448 W/m² | - |
| 1778079012 | 12.22° C | 67% | 1014.9 hPa | 0 mm | - | 488 W/m² | - |
| 1778078708 | 12.22° C | 64% | 1014.6 hPa | 0 mm | - | 357 W/m² | - |
| 1778078406 | 11.67° C | 66% | 1014.4 hPa | 0 mm | - | 792 W/m² | - |
| 1778078103 | 11.67° C | 67% | 1014.3 hPa | 0 mm | - | 710 W/m² | - |
| 1778077801 | 11.67° C | 67% | 1014.4 hPa | 0 mm | - | 729 W/m² | - |
| 1778077499 | 11.67° C | 71% | 1014.5 hPa | 0 mm | - | 678 W/m² | - |
| 1778077196 | 11.11° C | 69% | 1014.2 hPa | 0 mm | - | 616 W/m² | - |
* Rain latest hour (hover to see other rain measurements)
** Current wind speed in m/s (hover to see current wind gust speed)